sensor_id;sensor_type;location;lat;lon;timestamp;P1;durP1;ratioP1;P2;durP2;ratioP2
34144;SDS011;69555;53.014;8.886;2023-05-01T00:02:27;14.68;;;7.57;;
34144;SDS011;69555;53.014;8.886;2023-05-01T00:04:54;13.55;;;6.68;;
34144;SDS011;69555;53.014;8.886;2023-05-01T00:07:20;16.17;;;8.18;;
34144;SDS011;69555;53.014;8.886;2023-05-01T00:09:45;14.40;;;6.47;;
34144;SDS011;69555;53.014;8.886;2023-05-01T00:12:11;13.60;;;7.68;;
34144;SDS011;69555;53.014;8.886;2023-05-01T00:14:37;14.13;;;7.53;;
34144;SDS011;69555;53.014;8.886;2023-05-01T00:17:02;15.93;;;7.15;;
34144;SDS011;69555;53.014;8.886;2023-05-01T00:19:28;21.23;;;6.65;;
34144;SDS011;69555;53.014;8.886;2023-05-01T00:21:53;14.75;;;6.70;;
34144;SDS011;69555;53.014;8.886;2023-05-01T00:24:18;13.25;;;6.63;;
34144;SDS011;69555;53.014;8.886;2023-05-01T00:26:44;12.85;;;6.32;;
34144;SDS011;69555;53.014;8.886;2023-05-01T00:29:10;11.23;;;6.47;;
34144;SDS011;69555;53.014;8.886;2023-05-01T00:31:35;15.18;;;7.05;;
34144;SDS011;69555;53.014;8.886;2023-05-01T00:34:00;14.05;;;7.45;;
34144;SDS011;69555;53.014;8.886;2023-05-01T00:36:26;11.13;;;6.00;;
34144;SDS011;69555;53.014;8.886;2023-05-01T00:38:52;10.85;;;5.53;;
34144;SDS011;69555;53.014;8.886;2023-05-01T00:41:17;14.48;;;6.00;;
34144;SDS011;69555;53.014;8.886;2023-05-01T00:43:42;9.38;;;6.07;;
34144;SDS011;69555;53.014;8.886;2023-05-01T00:46:08;10.02;;;6.10;;
34144;SDS011;69555;53.014;8.886;2023-05-01T00:48:34;10.43;;;6.55;;
34144;SDS011;69555;53.014;8.886;2023-05-01T00:51:00;12.80;;;6.32;;
34144;SDS011;69555;53.014;8.886;2023-05-01T00:53:28;13.90;;;6.57;;
34144;SDS011;69555;53.014;8.886;2023-05-01T00:55:55;14.50;;;7.13;;
34144;SDS011;69555;53.014;8.886;2023-05-01T00:58:22;15.98;;;6.68;;
34144;SDS011;69555;53.014;8.886;2023-05-01T01:00:48;13.50;;;6.55;;
34144;SDS011;69555;53.014;8.886;2023-05-01T01:03:14;9.35;;;5.80;;
34144;SDS011;69555;53.014;8.886;2023-05-01T01:05:41;10.95;;;6.22;;
34144;SDS011;69555;53.014;8.886;2023-05-01T01:08:27;13.18;;;5.40;;
34144;SDS011;69555;53.014;8.886;2023-05-01T01:16:33;11.55;;;5.40;;
34144;SDS011;69555;53.014;8.886;2023-05-01T01:22:11;14.82;;;5.78;;
34144;SDS011;69555;53.014;8.886;2023-05-01T01:24:55;12.90;;;6.20;;
34144;SDS011;69555;53.014;8.886;2023-05-01T01:35:19;11.23;;;7.07;;
34144;SDS011;69555;53.014;8.886;2023-05-01T01:43:39;20.13;;;6.00;;
34144;SDS011;69555;53.014;8.886;2023-05-01T01:46:09;10.73;;;5.28;;
34144;SDS011;69555;53.014;8.886;2023-05-01T01:48:39;12.93;;;6.10;;
34144;SDS011;69555;53.014;8.886;2023-05-01T01:51:07;11.00;;;5.65;;
34144;SDS011;69555;53.014;8.886;2023-05-01T01:56:03;10.80;;;5.47;;
34144;SDS011;69555;53.014;8.886;2023-05-01T01:58:31;12.45;;;5.22;;
34144;SDS011;69555;53.014;8.886;2023-05-01T02:00:58;11.60;;;5.35;;
34144;SDS011;69555;53.014;8.886;2023-05-01T02:03:23;12.35;;;5.93;;
34144;SDS011;69555;53.014;8.886;2023-05-01T02:05:51;15.00;;;5.97;;
34144;SDS011;69555;53.014;8.886;2023-05-01T02:08:18;12.43;;;5.38;;
34144;SDS011;69555;53.014;8.886;2023-05-01T02:10:45;15.43;;;5.13;;
34144;SDS011;69555;53.014;8.886;2023-05-01T02:13:12;13.38;;;4.63;;
34144;SDS011;69555;53.014;8.886;2023-05-01T02:15:38;12.68;;;5.18;;
34144;SDS011;69555;53.014;8.886;2023-05-01T02:18:04;11.98;;;5.32;;
34144;SDS011;69555;53.014;8.886;2023-05-01T02:20:31;17.23;;;5.65;;
34144;SDS011;69555;53.014;8.886;2023-05-01T02:22:57;9.13;;;5.45;;
34144;SDS011;69555;53.014;8.886;2023-05-01T02:25:23;12.18;;;4.93;;
34144;SDS011;69555;53.014;8.886;2023-05-01T02:27:58;9.40;;;4.97;;
34144;SDS011;69555;53.014;8.886;2023-05-01T02:30:25;11.68;;;5.55;;
34144;SDS011;69555;53.014;8.886;2023-05-01T02:32:51;10.60;;;5.07;;
34144;SDS011;69555;53.014;8.886;2023-05-01T02:35:16;12.77;;;5.93;;
34144;SDS011;69555;53.014;8.886;2023-05-01T02:37:42;9.18;;;4.43;;
34144;SDS011;69555;53.014;8.886;2023-05-01T02:40:09;16.38;;;5.05;;
34144;SDS011;69555;53.014;8.886;2023-05-01T02:42:36;11.13;;;6.20;;
34144;SDS011;69555;53.014;8.886;2023-05-01T02:45:03;14.05;;;5.10;;
34144;SDS011;69555;53.014;8.886;2023-05-01T02:47:32;9.40;;;4.80;;
34144;SDS011;69555;53.014;8.886;2023-05-01T02:50:01;8.60;;;4.65;;
34144;SDS011;69555;53.014;8.886;2023-05-01T02:52:27;9.02;;;4.40;;
34144;SDS011;69555;53.014;8.886;2023-05-01T02:54:53;10.50;;;4.82;;
34144;SDS011;69555;53.014;8.886;2023-05-01T02:57:19;9.48;;;4.35;;
34144;SDS011;69555;53.014;8.886;2023-05-01T02:59:45;10.85;;;5.50;;
34144;SDS011;69555;53.014;8.886;2023-05-01T03:02:11;17.08;;;5.57;;
34144;SDS011;69555;53.014;8.886;2023-05-01T03:04:36;9.18;;;5.15;;
34144;SDS011;69555;53.014;8.886;2023-05-01T03:07:02;11.07;;;4.65;;
34144;SDS011;69555;53.014;8.886;2023-05-01T03:09:28;13.73;;;5.30;;
34144;SDS011;69555;53.014;8.886;2023-05-01T03:11:55;10.40;;;5.47;;
34144;SDS011;69555;53.014;8.886;2023-05-01T03:14:21;11.50;;;5.50;;
34144;SDS011;69555;53.014;8.886;2023-05-01T03:16:46;12.38;;;5.75;;
34144;SDS011;69555;53.014;8.886;2023-05-01T03:19:12;11.63;;;5.55;;
34144;SDS011;69555;53.014;8.886;2023-05-01T03:21:37;13.45;;;5.65;;
34144;SDS011;69555;53.014;8.886;2023-05-01T03:24:03;13.93;;;4.88;;
34144;SDS011;69555;53.014;8.886;2023-05-01T03:26:28;13.43;;;5.07;;
34144;SDS011;69555;53.014;8.886;2023-05-01T03:28:54;10.70;;;5.80;;
34144;SDS011;69555;53.014;8.886;2023-05-01T03:31:19;9.77;;;5.40;;
34144;SDS011;69555;53.014;8.886;2023-05-01T03:33:45;14.65;;;4.90;;
34144;SDS011;69555;53.014;8.886;2023-05-01T03:36:11;10.98;;;4.90;;
34144;SDS011;69555;53.014;8.886;2023-05-01T03:38:37;13.88;;;6.05;;
34144;SDS011;69555;53.014;8.886;2023-05-01T03:41:02;14.07;;;4.97;;
34144;SDS011;69555;53.014;8.886;2023-05-01T03:43:29;13.90;;;5.90;;
34144;SDS011;69555;53.014;8.886;2023-05-01T03:45:55;14.05;;;5.82;;
34144;SDS011;69555;53.014;8.886;2023-05-01T03:48:21;13.00;;;5.82;;
34144;SDS011;69555;53.014;8.886;2023-05-01T03:50:47;12.80;;;5.35;;
34144;SDS011;69555;53.014;8.886;2023-05-01T03:53:12;12.95;;;5.60;;
34144;SDS011;69555;53.014;8.886;2023-05-01T03:55:39;14.35;;;5.55;;
34144;SDS011;69555;53.014;8.886;2023-05-01T03:58:04;12.38;;;5.95;;
34144;SDS011;69555;53.014;8.886;2023-05-01T04:00:31;12.18;;;6.15;;
34144;SDS011;69555;53.014;8.886;2023-05-01T04:02:57;10.40;;;5.43;;
34144;SDS011;69555;53.014;8.886;2023-05-01T04:05:22;17.52;;;5.93;;
34144;SDS011;69555;53.014;8.886;2023-05-01T04:07:48;17.13;;;5.43;;
34144;SDS011;69555;53.014;8.886;2023-05-01T04:10:13;15.60;;;6.47;;
34144;SDS011;69555;53.014;8.886;2023-05-01T04:12:39;14.27;;;5.70;;
34144;SDS011;69555;53.014;8.886;2023-05-01T04:15:05;12.43;;;5.85;;
34144;SDS011;69555;53.014;8.886;2023-05-01T04:17:31;15.32;;;5.97;;
34144;SDS011;69555;53.014;8.886;2023-05-01T04:19:57;11.30;;;5.90;;
34144;SDS011;69555;53.014;8.886;2023-05-01T04:22:22;12.68;;;5.07;;
34144;SDS011;69555;53.014;8.886;2023-05-01T04:24:48;17.90;;;6.15;;
34144;SDS011;69555;53.014;8.886;2023-05-01T04:27:13;18.02;;;7.63;;
34144;SDS011;69555;53.014;8.886;2023-05-01T04:29:39;16.02;;;5.80;;
34144;SDS011;69555;53.014;8.886;2023-05-01T04:32:05;15.65;;;6.53;;
34144;SDS011;69555;53.014;8.886;2023-05-01T04:34:31;11.60;;;5.35;;
34144;SDS011;69555;53.014;8.886;2023-05-01T04:36:56;8.40;;;5.70;;
34144;SDS011;69555;53.014;8.886;2023-05-01T04:39:22;11.48;;;5.28;;
34144;SDS011;69555;53.014;8.886;2023-05-01T04:41:48;18.70;;;6.90;;
34144;SDS011;69555;53.014;8.886;2023-05-01T04:44:13;14.23;;;5.88;;
34144;SDS011;69555;53.014;8.886;2023-05-01T04:46:39;13.93;;;5.68;;
34144;SDS011;69555;53.014;8.886;2023-05-01T04:49:04;9.10;;;5.30;;
34144;SDS011;69555;53.014;8.886;2023-05-01T04:51:30;12.50;;;5.13;;
34144;SDS011;69555;53.014;8.886;2023-05-01T04:53:55;13.60;;;5.57;;
34144;SDS011;69555;53.014;8.886;2023-05-01T04:56:21;13.57;;;4.95;;
34144;SDS011;69555;53.014;8.886;2023-05-01T04:58:46;14.40;;;5.10;;
34144;SDS011;69555;53.014;8.886;2023-05-01T05:01:12;11.60;;;5.60;;
34144;SDS011;69555;53.014;8.886;2023-05-01T05:03:37;11.15;;;5.03;;
34144;SDS011;69555;53.014;8.886;2023-05-01T05:06:02;14.02;;;5.60;;
34144;SDS011;69555;53.014;8.886;2023-05-01T05:08:28;12.27;;;5.00;;
34144;SDS011;69555;53.014;8.886;2023-05-01T05:10:57;17.83;;;5.00;;
34144;SDS011;69555;53.014;8.886;2023-05-01T05:13:26;10.23;;;4.53;;
34144;SDS011;69555;53.014;8.886;2023-05-01T05:15:52;12.15;;;4.72;;
34144;SDS011;69555;53.014;8.886;2023-05-01T05:18:17;15.55;;;5.05;;
34144;SDS011;69555;53.014;8.886;2023-05-01T05:20:43;14.63;;;6.25;;
34144;SDS011;69555;53.014;8.886;2023-05-01T05:23:08;10.95;;;4.75;;
34144;SDS011;69555;53.014;8.886;2023-05-01T05:25:34;12.25;;;4.95;;
34144;SDS011;69555;53.014;8.886;2023-05-01T05:28:00;12.27;;;5.70;;
34144;SDS011;69555;53.014;8.886;2023-05-01T05:30:25;11.50;;;5.95;;
34144;SDS011;69555;53.014;8.886;2023-05-01T05:32:51;9.57;;;4.72;;
34144;SDS011;69555;53.014;8.886;2023-05-01T05:35:17;8.38;;;4.63;;
34144;SDS011;69555;53.014;8.886;2023-05-01T05:37:43;8.80;;;4.88;;
34144;SDS011;69555;53.014;8.886;2023-05-01T05:40:08;9.70;;;4.88;;
34144;SDS011;69555;53.014;8.886;2023-05-01T05:42:34;9.32;;;4.95;;
34144;SDS011;69555;53.014;8.886;2023-05-01T05:45:00;12.50;;;5.93;;
34144;SDS011;69555;53.014;8.886;2023-05-01T05:47:25;11.55;;;5.07;;
34144;SDS011;69555;53.014;8.886;2023-05-01T05:49:51;11.52;;;5.38;;
34144;SDS011;69555;53.014;8.886;2023-05-01T05:52:16;10.77;;;5.25;;
34144;SDS011;69555;53.014;8.886;2023-05-01T05:54:42;8.75;;;4.60;;
34144;SDS011;69555;53.014;8.886;2023-05-01T05:57:07;14.52;;;5.38;;
34144;SDS011;69555;53.014;8.886;2023-05-01T05:59:33;7.88;;;4.35;;
34144;SDS011;69555;53.014;8.886;2023-05-01T06:01:59;11.80;;;5.18;;
34144;SDS011;69555;53.014;8.886;2023-05-01T06:04:24;9.55;;;4.68;;
34144;SDS011;69555;53.014;8.886;2023-05-01T06:06:50;14.73;;;5.28;;
34144;SDS011;69555;53.014;8.886;2023-05-01T06:09:15;7.68;;;4.60;;
34144;SDS011;69555;53.014;8.886;2023-05-01T06:11:43;12.07;;;4.88;;
34144;SDS011;69555;53.014;8.886;2023-05-01T06:14:08;12.85;;;5.55;;
34144;SDS011;69555;53.014;8.886;2023-05-01T06:16:34;9.50;;;4.70;;
34144;SDS011;69555;53.014;8.886;2023-05-01T06:18:59;9.25;;;4.72;;
34144;SDS011;69555;53.014;8.886;2023-05-01T06:21:24;8.77;;;4.88;;
34144;SDS011;69555;53.014;8.886;2023-05-01T06:23:50;8.85;;;4.78;;
34144;SDS011;69555;53.014;8.886;2023-05-01T06:26:16;11.60;;;5.60;;
34144;SDS011;69555;53.014;8.886;2023-05-01T06:28:41;8.30;;;4.38;;
34144;SDS011;69555;53.014;8.886;2023-05-01T06:31:07;9.40;;;4.40;;
34144;SDS011;69555;53.014;8.886;2023-05-01T06:33:32;16.77;;;4.68;;
34144;SDS011;69555;53.014;8.886;2023-05-01T06:35:58;10.95;;;4.97;;
34144;SDS011;69555;53.014;8.886;2023-05-01T06:38:24;8.15;;;4.53;;
34144;SDS011;69555;53.014;8.886;2023-05-01T06:40:50;6.07;;;3.75;;
34144;SDS011;69555;53.014;8.886;2023-05-01T06:43:15;9.27;;;4.40;;
34144;SDS011;69555;53.014;8.886;2023-05-01T06:45:41;8.20;;;3.95;;
34144;SDS011;69555;53.014;8.886;2023-05-01T06:48:06;7.82;;;4.20;;
34144;SDS011;69555;53.014;8.886;2023-05-01T06:50:32;9.20;;;4.13;;
34144;SDS011;69555;53.014;8.886;2023-05-01T06:52:57;9.13;;;4.65;;
34144;SDS011;69555;53.014;8.886;2023-05-01T06:55:25;13.40;;;4.18;;
34144;SDS011;69555;53.014;8.886;2023-05-01T06:57:51;7.90;;;3.70;;
34144;SDS011;69555;53.014;8.886;2023-05-01T07:00:16;8.38;;;3.88;;
34144;SDS011;69555;53.014;8.886;2023-05-01T07:02:43;10.57;;;3.65;;
34144;SDS011;69555;53.014;8.886;2023-05-01T07:05:09;11.07;;;4.68;;
34144;SDS011;69555;53.014;8.886;2023-05-01T07:07:34;8.25;;;4.13;;
34144;SDS011;69555;53.014;8.886;2023-05-01T07:10:00;8.80;;;3.60;;
34144;SDS011;69555;53.014;8.886;2023-05-01T07:12:26;9.18;;;4.05;;
34144;SDS011;69555;53.014;8.886;2023-05-01T07:14:53;10.27;;;4.03;;
34144;SDS011;69555;53.014;8.886;2023-05-01T07:17:20;11.25;;;4.40;;
34144;SDS011;69555;53.014;8.886;2023-05-01T07:19:46;9.57;;;3.83;;
34144;SDS011;69555;53.014;8.886;2023-05-01T07:22:11;9.98;;;3.80;;
34144;SDS011;69555;53.014;8.886;2023-05-01T07:24:37;12.57;;;4.43;;
34144;SDS011;69555;53.014;8.886;2023-05-01T07:27:02;5.80;;;3.63;;
34144;SDS011;69555;53.014;8.886;2023-05-01T07:29:28;9.50;;;4.07;;
34144;SDS011;69555;53.014;8.886;2023-05-01T07:31:53;8.93;;;4.18;;
34144;SDS011;69555;53.014;8.886;2023-05-01T07:34:19;8.25;;;3.70;;
34144;SDS011;69555;53.014;8.886;2023-05-01T07:36:44;12.98;;;4.07;;
34144;SDS011;69555;53.014;8.886;2023-05-01T07:39:10;9.50;;;3.60;;
34144;SDS011;69555;53.014;8.886;2023-05-01T07:41:36;7.15;;;3.78;;
34144;SDS011;69555;53.014;8.886;2023-05-01T07:44:01;10.60;;;5.25;;
34144;SDS011;69555;53.014;8.886;2023-05-01T07:46:27;5.93;;;3.65;;
34144;SDS011;69555;53.014;8.886;2023-05-01T07:48:53;7.38;;;3.60;;
34144;SDS011;69555;53.014;8.886;2023-05-01T07:51:18;7.60;;;3.70;;
34144;SDS011;69555;53.014;8.886;2023-05-01T07:53:45;7.47;;;4.43;;
34144;SDS011;69555;53.014;8.886;2023-05-01T07:56:13;7.03;;;3.78;;
34144;SDS011;69555;53.014;8.886;2023-05-01T07:58:40;6.93;;;3.75;;
34144;SDS011;69555;53.014;8.886;2023-05-01T08:01:06;6.45;;;3.92;;
34144;SDS011;69555;53.014;8.886;2023-05-01T08:03:34;6.60;;;3.45;;
34144;SDS011;69555;53.014;8.886;2023-05-01T08:06:01;12.15;;;4.20;;
34144;SDS011;69555;53.014;8.886;2023-05-01T08:08:27;8.70;;;4.18;;
34144;SDS011;69555;53.014;8.886;2023-05-01T08:10:53;9.02;;;4.13;;
34144;SDS011;69555;53.014;8.886;2023-05-01T08:13:19;8.35;;;4.03;;
34144;SDS011;69555;53.014;8.886;2023-05-01T08:15:50;7.70;;;3.92;;
34144;SDS011;69555;53.014;8.886;2023-05-01T08:18:16;8.07;;;4.70;;
34144;SDS011;69555;53.014;8.886;2023-05-01T08:20:51;7.90;;;4.68;;
34144;SDS011;69555;53.014;8.886;2023-05-01T08:23:18;7.97;;;3.97;;
34144;SDS011;69555;53.014;8.886;2023-05-01T08:25:46;11.40;;;4.60;;
34144;SDS011;69555;53.014;8.886;2023-05-01T08:30:43;10.40;;;4.90;;
34144;SDS011;69555;53.014;8.886;2023-05-01T08:33:08;7.35;;;4.20;;
34144;SDS011;69555;53.014;8.886;2023-05-01T08:35:35;8.35;;;3.70;;
34144;SDS011;69555;53.014;8.886;2023-05-01T08:38:04;11.15;;;4.10;;
34144;SDS011;69555;53.014;8.886;2023-05-01T08:40:32;13.38;;;4.95;;
34144;SDS011;69555;53.014;8.886;2023-05-01T08:43:03;10.75;;;4.03;;
34144;SDS011;69555;53.014;8.886;2023-05-01T08:45:32;8.88;;;4.57;;
34144;SDS011;69555;53.014;8.886;2023-05-01T08:48:07;10.00;;;3.88;;
34144;SDS011;69555;53.014;8.886;2023-05-01T08:50:38;10.63;;;4.20;;
34144;SDS011;69555;53.014;8.886;2023-05-01T08:53:06;11.10;;;4.45;;
34144;SDS011;69555;53.014;8.886;2023-05-01T08:55:37;8.52;;;4.60;;
34144;SDS011;69555;53.014;8.886;2023-05-01T08:58:05;13.80;;;4.55;;
34144;SDS011;69555;53.014;8.886;2023-05-01T09:00:34;21.02;;;6.28;;
34144;SDS011;69555;53.014;8.886;2023-05-01T09:03:02;8.75;;;4.57;;
34144;SDS011;69555;53.014;8.886;2023-05-01T09:05:30;11.73;;;4.32;;
34144;SDS011;69555;53.014;8.886;2023-05-01T09:07:56;10.82;;;5.10;;
34144;SDS011;69555;53.014;8.886;2023-05-01T09:10:23;9.63;;;4.63;;
34144;SDS011;69555;53.014;8.886;2023-05-01T09:12:53;8.63;;;4.68;;
34144;SDS011;69555;53.014;8.886;2023-05-01T09:15:25;8.48;;;4.43;;
34144;SDS011;69555;53.014;8.886;2023-05-01T09:17:53;7.47;;;4.18;;
34144;SDS011;69555;53.014;8.886;2023-05-01T09:20:21;10.63;;;4.82;;
34144;SDS011;69555;53.014;8.886;2023-05-01T09:22:49;12.10;;;4.63;;
34144;SDS011;69555;53.014;8.886;2023-05-01T09:25:16;10.68;;;4.53;;
34144;SDS011;69555;53.014;8.886;2023-05-01T09:27:46;7.78;;;4.22;;
34144;SDS011;69555;53.014;8.886;2023-05-01T09:30:31;8.07;;;4.13;;
34144;SDS011;69555;53.014;8.886;2023-05-01T09:35:59;8.60;;;4.72;;
34144;SDS011;69555;53.014;8.886;2023-05-01T09:38:26;8.20;;;3.97;;
34144;SDS011;69555;53.014;8.886;2023-05-01T09:40:55;11.93;;;3.85;;
34144;SDS011;69555;53.014;8.886;2023-05-01T09:43:28;10.05;;;4.15;;
34144;SDS011;69555;53.014;8.886;2023-05-01T09:46:12;11.07;;;3.63;;
34144;SDS011;69555;53.014;8.886;2023-05-01T09:48:39;11.00;;;3.97;;
34144;SDS011;69555;53.014;8.886;2023-05-01T09:53:55;10.48;;;4.20;;
34144;SDS011;69555;53.014;8.886;2023-05-01T09:56:26;9.52;;;3.30;;
34144;SDS011;69555;53.014;8.886;2023-05-01T09:58:54;8.50;;;4.18;;
34144;SDS011;69555;53.014;8.886;2023-05-01T10:04:11;9.40;;;4.18;;
34144;SDS011;69555;53.014;8.886;2023-05-01T10:06:39;10.40;;;4.03;;
34144;SDS011;69555;53.014;8.886;2023-05-01T10:09:06;11.75;;;4.30;;
34144;SDS011;69555;53.014;8.886;2023-05-01T10:11:50;10.15;;;4.68;;
34144;SDS011;69555;53.014;8.886;2023-05-01T10:14:17;9.00;;;4.25;;
34144;SDS011;69555;53.014;8.886;2023-05-01T10:16:44;12.07;;;5.03;;
34144;SDS011;69555;53.014;8.886;2023-05-01T10:19:10;8.73;;;3.97;;
34144;SDS011;69555;53.014;8.886;2023-05-01T10:21:37;8.88;;;4.78;;
34144;SDS011;69555;53.014;8.886;2023-05-01T10:24:02;12.00;;;4.45;;
34144;SDS011;69555;53.014;8.886;2023-05-01T10:26:29;10.45;;;4.20;;
34144;SDS011;69555;53.014;8.886;2023-05-01T10:28:59;10.13;;;4.40;;
34144;SDS011;69555;53.014;8.886;2023-05-01T10:31:26;11.18;;;3.97;;
34144;SDS011;69555;53.014;8.886;2023-05-01T10:33:52;12.57;;;4.47;;
34144;SDS011;69555;53.014;8.886;2023-05-01T10:36:38;6.38;;;3.92;;
34144;SDS011;69555;53.014;8.886;2023-05-01T10:44:22;7.75;;;3.80;;
34144;SDS011;69555;53.014;8.886;2023-05-01T10:46:48;7.15;;;3.55;;
34144;SDS011;69555;53.014;8.886;2023-05-01T10:49:14;7.00;;;4.05;;
34144;SDS011;69555;53.014;8.886;2023-05-01T10:51:59;8.32;;;3.97;;
34144;SDS011;69555;53.014;8.886;2023-05-01T10:54:29;9.63;;;4.30;;
34144;SDS011;69555;53.014;8.886;2023-05-01T10:56:59;8.18;;;4.20;;
34144;SDS011;69555;53.014;8.886;2023-05-01T10:59:26;7.80;;;4.00;;
34144;SDS011;69555;53.014;8.886;2023-05-01T11:02:21;11.90;;;3.90;;
34144;SDS011;69555;53.014;8.886;2023-05-01T11:04:47;7.85;;;3.90;;
34144;SDS011;69555;53.014;8.886;2023-05-01T11:07:18;8.35;;;3.53;;
34144;SDS011;69555;53.014;8.886;2023-05-01T11:12:11;9.10;;;4.07;;
34144;SDS011;69555;53.014;8.886;2023-05-01T11:20:09;8.70;;;4.28;;
34144;SDS011;69555;53.014;8.886;2023-05-01T11:22:57;8.13;;;3.28;;
34144;SDS011;69555;53.014;8.886;2023-05-01T11:25:24;9.70;;;3.50;;
34144;SDS011;69555;53.014;8.886;2023-05-01T11:27:58;7.40;;;3.38;;
34144;SDS011;69555;53.014;8.886;2023-05-01T11:30:25;7.22;;;4.90;;
34144;SDS011;69555;53.014;8.886;2023-05-01T11:32:51;7.70;;;3.65;;
34144;SDS011;69555;53.014;8.886;2023-05-01T11:35:18;8.38;;;3.53;;
34144;SDS011;69555;53.014;8.886;2023-05-01T11:37:43;8.60;;;2.95;;
34144;SDS011;69555;53.014;8.886;2023-05-01T11:40:20;7.72;;;3.13;;
34144;SDS011;69555;53.014;8.886;2023-05-01T11:42:47;5.75;;;3.63;;
34144;SDS011;69555;53.014;8.886;2023-05-01T11:45:13;4.28;;;2.58;;
34144;SDS011;69555;53.014;8.886;2023-05-01T11:47:39;9.13;;;2.65;;
34144;SDS011;69555;53.014;8.886;2023-05-01T11:50:05;8.73;;;3.10;;
34144;SDS011;69555;53.014;8.886;2023-05-01T11:52:50;3.40;;;2.47;;
34144;SDS011;69555;53.014;8.886;2023-05-01T11:55:19;6.88;;;3.45;;
34144;SDS011;69555;53.014;8.886;2023-05-01T11:57:46;5.05;;;3.10;;
34144;SDS011;69555;53.014;8.886;2023-05-01T12:00:16;8.85;;;3.10;;
34144;SDS011;69555;53.014;8.886;2023-05-01T12:03:24;10.93;;;3.65;;
34144;SDS011;69555;53.014;8.886;2023-05-01T12:05:43;10.57;;;3.05;;
34144;SDS011;69555;53.014;8.886;2023-05-01T12:10:35;6.78;;;2.53;;
34144;SDS011;69555;53.014;8.886;2023-05-01T12:13:01;6.57;;;3.15;;
34144;SDS011;69555;53.014;8.886;2023-05-01T12:15:28;6.00;;;2.92;;
34144;SDS011;69555;53.014;8.886;2023-05-01T12:17:54;5.32;;;2.53;;
34144;SDS011;69555;53.014;8.886;2023-05-01T12:20:36;8.20;;;3.33;;
34144;SDS011;69555;53.014;8.886;2023-05-01T12:23:03;5.18;;;2.85;;
34144;SDS011;69555;53.014;8.886;2023-05-01T12:25:30;9.57;;;2.83;;
34144;SDS011;69555;53.014;8.886;2023-05-01T12:28:00;3.08;;;2.50;;
34144;SDS011;69555;53.014;8.886;2023-05-01T12:30:27;2.72;;;2.17;;
34144;SDS011;69555;53.014;8.886;2023-05-01T12:32:53;5.20;;;2.30;;
34144;SDS011;69555;53.014;8.886;2023-05-01T12:35:20;4.35;;;2.67;;
34144;SDS011;69555;53.014;8.886;2023-05-01T12:37:46;7.00;;;2.17;;
34144;SDS011;69555;53.014;8.886;2023-05-01T12:40:14;7.65;;;2.30;;
34144;SDS011;69555;53.014;8.886;2023-05-01T12:42:41;4.93;;;1.95;;
34144;SDS011;69555;53.014;8.886;2023-05-01T12:45:06;3.75;;;2.25;;
34144;SDS011;69555;53.014;8.886;2023-05-01T12:47:35;5.50;;;1.60;;
34144;SDS011;69555;53.014;8.886;2023-05-01T12:50:02;2.22;;;1.73;;
34144;SDS011;69555;53.014;8.886;2023-05-01T12:52:28;5.78;;;1.52;;
34144;SDS011;69555;53.014;8.886;2023-05-01T12:55:00;6.65;;;1.85;;
34144;SDS011;69555;53.014;8.886;2023-05-01T12:57:27;9.85;;;2.45;;
34144;SDS011;69555;53.014;8.886;2023-05-01T12:59:57;4.43;;;2.10;;
34144;SDS011;69555;53.014;8.886;2023-05-01T13:02:28;7.28;;;2.67;;
34144;SDS011;69555;53.014;8.886;2023-05-01T13:07:34;5.28;;;1.73;;
34144;SDS011;69555;53.014;8.886;2023-05-01T13:10:00;3.83;;;1.70;;
34144;SDS011;69555;53.014;8.886;2023-05-01T13:12:27;3.55;;;1.60;;
34144;SDS011;69555;53.014;8.886;2023-05-01T13:14:54;5.70;;;1.75;;
34144;SDS011;69555;53.014;8.886;2023-05-01T13:17:30;3.72;;;1.80;;
34144;SDS011;69555;53.014;8.886;2023-05-01T13:20:00;4.38;;;1.50;;
34144;SDS011;69555;53.014;8.886;2023-05-01T13:22:31;4.45;;;1.70;;
34144;SDS011;69555;53.014;8.886;2023-05-01T13:24:58;5.40;;;1.27;;
34144;SDS011;69555;53.014;8.886;2023-05-01T13:27:25;5.07;;;1.58;;
34144;SDS011;69555;53.014;8.886;2023-05-01T13:29:55;5.90;;;1.50;;
34144;SDS011;69555;53.014;8.886;2023-05-01T13:32:23;1.70;;;1.40;;
34144;SDS011;69555;53.014;8.886;2023-05-01T13:34:49;14.93;;;3.00;;
34144;SDS011;69555;53.014;8.886;2023-05-01T13:37:15;3.65;;;1.23;;
34144;SDS011;69555;53.014;8.886;2023-05-01T13:39:41;6.50;;;1.60;;
34144;SDS011;69555;53.014;8.886;2023-05-01T13:42:09;5.88;;;1.73;;
34144;SDS011;69555;53.014;8.886;2023-05-01T13:44:45;3.22;;;1.50;;
34144;SDS011;69555;53.014;8.886;2023-05-01T13:47:16;5.20;;;1.55;;
34144;SDS011;69555;53.014;8.886;2023-05-01T13:49:44;2.85;;;1.70;;
34144;SDS011;69555;53.014;8.886;2023-05-01T13:52:11;10.93;;;2.50;;
34144;SDS011;69555;53.014;8.886;2023-05-01T13:54:41;6.88;;;2.10;;
34144;SDS011;69555;53.014;8.886;2023-05-01T13:57:07;3.72;;;1.90;;
34144;SDS011;69555;53.014;8.886;2023-05-01T13:59:42;5.53;;;1.83;;
34144;SDS011;69555;53.014;8.886;2023-05-01T14:04:45;4.20;;;1.40;;
34144;SDS011;69555;53.014;8.886;2023-05-01T14:07:11;13.15;;;2.30;;
34144;SDS011;69555;53.014;8.886;2023-05-01T14:09:45;8.68;;;1.65;;
34144;SDS011;69555;53.014;8.886;2023-05-01T14:12:25;5.53;;;2.15;;
34144;SDS011;69555;53.014;8.886;2023-05-01T14:14:53;4.57;;;1.70;;
34144;SDS011;69555;53.014;8.886;2023-05-01T14:17:24;4.78;;;1.58;;
34144;SDS011;69555;53.014;8.886;2023-05-01T14:19:50;9.65;;;2.03;;
34144;SDS011;69555;53.014;8.886;2023-05-01T14:22:16;6.70;;;1.58;;
34144;SDS011;69555;53.014;8.886;2023-05-01T14:24:42;3.97;;;1.38;;
34144;SDS011;69555;53.014;8.886;2023-05-01T14:27:07;9.98;;;1.52;;
34144;SDS011;69555;53.014;8.886;2023-05-01T14:29:35;7.72;;;1.80;;
34144;SDS011;69555;53.014;8.886;2023-05-01T14:32:07;6.07;;;1.58;;
34144;SDS011;69555;53.014;8.886;2023-05-01T14:34:34;4.32;;;2.00;;
34144;SDS011;69555;53.014;8.886;2023-05-01T14:37:01;2.75;;;1.40;;
34144;SDS011;69555;53.014;8.886;2023-05-01T14:39:26;4.65;;;1.73;;
34144;SDS011;69555;53.014;8.886;2023-05-01T14:41:56;6.90;;;1.70;;
34144;SDS011;69555;53.014;8.886;2023-05-01T14:44:22;3.22;;;1.40;;
34144;SDS011;69555;53.014;8.886;2023-05-01T14:46:52;2.10;;;1.30;;
34144;SDS011;69555;53.014;8.886;2023-05-01T14:49:18;3.25;;;1.38;;
34144;SDS011;69555;53.014;8.886;2023-05-01T14:51:51;4.65;;;1.70;;
34144;SDS011;69555;53.014;8.886;2023-05-01T14:54:17;8.32;;;1.60;;
34144;SDS011;69555;53.014;8.886;2023-05-01T14:56:44;2.22;;;1.33;;
34144;SDS011;69555;53.014;8.886;2023-05-01T14:59:11;3.47;;;1.58;;
34144;SDS011;69555;53.014;8.886;2023-05-01T15:01:37;2.97;;;1.90;;
34144;SDS011;69555;53.014;8.886;2023-05-01T15:04:03;4.53;;;1.70;;
34144;SDS011;69555;53.014;8.886;2023-05-01T15:06:31;3.03;;;1.45;;
34144;SDS011;69555;53.014;8.886;2023-05-01T15:08:57;13.18;;;2.42;;
34144;SDS011;69555;53.014;8.886;2023-05-01T15:11:24;4.43;;;1.90;;
34144;SDS011;69555;53.014;8.886;2023-05-01T15:13:50;2.67;;;1.60;;
34144;SDS011;69555;53.014;8.886;2023-05-01T15:16:17;3.22;;;2.10;;
34144;SDS011;69555;53.014;8.886;2023-05-01T15:18:44;5.10;;;2.22;;
34144;SDS011;69555;53.014;8.886;2023-05-01T15:21:09;6.50;;;2.35;;
34144;SDS011;69555;53.014;8.886;2023-05-01T15:23:35;4.45;;;1.60;;
34144;SDS011;69555;53.014;8.886;2023-05-01T15:26:04;3.22;;;1.58;;
34144;SDS011;69555;53.014;8.886;2023-05-01T15:28:29;4.38;;;1.80;;
34144;SDS011;69555;53.014;8.886;2023-05-01T15:30:55;5.55;;;1.45;;
34144;SDS011;69555;53.014;8.886;2023-05-01T15:33:20;3.10;;;2.20;;
34144;SDS011;69555;53.014;8.886;2023-05-01T15:35:46;5.57;;;1.88;;
34144;SDS011;69555;53.014;8.886;2023-05-01T15:38:12;7.63;;;1.95;;
34144;SDS011;69555;53.014;8.886;2023-05-01T15:40:38;7.60;;;2.50;;